Time;durP1;ratioP1;P1;durP2;ratioP2;P2;SDS_P1;SDS_P2;PMS_P1;PMS_P2;Temp;Humidity;BMP_temperature;BMP_pressure;BME280_temperature;BME280_humidity;BME280_pressure;Samples;Min_cycle;Max_cycle;Signal;HPM_P1;HPM_P2
2021/06/06 00:00:29;;;;;;;46.80;30.48;;;;;;;15.65;73.14;100719.97;5014406;28;20034;-56
2021/06/06 00:02:55;;;;;;;39.92;29.27;;;;;;;15.65;73.06;100726.09;4993021;28;20141;-56
2021/06/06 00:05:25;;;;;;;38.28;27.65;;;;;;;15.66;72.92;100726.94;4994925;28;20108;-56
2021/06/06 00:07:50;;;;;;;39.85;26.33;;;;;;;15.66;73.21;100729.56;4993671;28;20041;-56
2021/06/06 00:10:16;;;;;;;33.72;24.05;;;;;;;15.65;72.92;100730.44;4994591;28;20042;-55
2021/06/06 00:12:41;;;;;;;25.98;19.73;;;;;;;15.62;72.86;100736.53;4993424;28;20108;-55
2021/06/06 00:15:13;;;;;;;26.48;19.77;;;;;;;15.61;72.83;100729.53;4994016;28;20449;-55
2021/06/06 00:17:41;;;;;;;26.40;19.85;;;;;;;15.60;72.79;100725.19;4994458;28;20041;-55
2021/06/06 00:20:10;;;;;;;24.52;18.40;;;;;;;15.58;72.75;100716.44;4992987;28;20042;-55
2021/06/06 00:22:38;;;;;;;23.08;16.48;;;;;;;15.58;72.83;100721.69;4994651;28;20069;-57
2021/06/06 00:25:06;;;;;;;22.15;17.27;;;;;;;15.58;72.72;100723.44;4994570;28;20035;-55
2021/06/06 00:27:34;;;;;;;23.20;16.95;;;;;;;15.56;72.83;100722.53;4993012;28;20041;-56
2021/06/06 00:30:00;;;;;;;20.90;14.85;;;;;;;15.56;72.76;100714.72;4992979;28;20042;-56
2021/06/06 00:32:28;;;;;;;20.45;15.75;;;;;;;15.53;72.83;100721.66;4977291;28;20576;-56
2021/06/06 00:34:57;;;;;;;23.27;15.88;;;;;;;15.53;72.73;100721.66;4993279;28;20065;-56
2021/06/06 00:37:22;;;;;;;22.55;15.57;;;;;;;15.52;72.90;100719.03;4994062;28;20125;-56
2021/06/06 00:39:52;;;;;;;20.52;15.90;;;;;;;15.52;73.07;100713.81;4993998;28;20137;-56
2021/06/06 00:42:21;;;;;;;23.73;15.02;;;;;;;15.53;72.59;100719.03;4992714;28;20046;-56
2021/06/06 00:44:48;;;;;;;19.05;15.60;;;;;;;15.53;72.74;100718.19;4977287;28;20433;-56
2021/06/06 00:47:17;;;;;;;22.98;15.60;;;;;;;15.51;72.59;100718.16;4992862;28;20042;-56
2021/06/06 00:49:45;;;;;;;18.27;14.32;;;;;;;15.50;72.54;100721.63;4993882;28;20041;-56
2021/06/06 00:52:16;;;;;;;19.27;14.55;;;;;;;15.49;72.59;100724.25;4992799;28;20046;-56
2021/06/06 00:54:48;;;;;;;19.95;14.30;;;;;;;15.48;72.78;100722.50;4992494;28;20402;-56
2021/06/06 00:57:19;;;;;;;19.60;15.23;;;;;;;15.47;72.67;100726.84;4992398;28;20034;-56
2021/06/06 00:59:56;;;;;;;19.30;15.90;;;;;;;15.47;72.63;100732.09;4994382;28;20049;-56
2021/06/06 01:02:26;;;;;;;17.40;14.02;;;;;;;15.47;72.71;100729.47;5003726;28;20049;-56
2021/06/06 01:04:54;;;;;;;19.02;16.35;;;;;;;15.45;72.59;100723.34;4996130;28;20041;-55
2021/06/06 01:07:22;;;;;;;23.75;15.93;;;;;;;15.46;72.65;100721.59;5013147;28;20034;-55
2021/06/06 01:09:47;;;;;;;19.40;15.20;;;;;;;15.46;72.73;100724.22;4995874;28;20144;-56
2021/06/06 01:12:29;;;;;;;22.80;15.73;;;;;;;15.44;72.52;100723.31;4996386;28;20034;-56
2021/06/06 01:15:00;;;;;;;21.10;15.20;;;;;;;15.45;72.65;100730.31;4995786;28;20493;-56
2021/06/06 01:17:49;;;;;;;22.25;14.95;;;;;;;15.45;72.66;100719.84;4979578;28;20046;-56
2021/06/06 01:20:30;;;;;;;22.17;16.02;;;;;;;15.44;72.62;100723.31;5004766;28;20058;-55
2021/06/06 01:23:08;;;;;;;20.83;15.35;;;;;;;15.44;72.54;100715.50;4996299;28;20100;-55
2021/06/06 01:25:38;;;;;;;20.73;15.60;;;;;;;15.42;72.36;100718.09;5013263;28;20034;-55
2021/06/06 01:28:48;;;;;;;18.05;15.30;;;;;;;15.40;72.59;100719.84;4995793;28;20042;-55
2021/06/06 01:31:15;;;;;;;19.98;15.80;;;;;;;15.40;72.34;100719.84;5013665;28;20045;-55
2021/06/06 01:33:47;;;;;;;24.63;17.15;;;;;;;15.38;72.52;100716.34;4995603;28;20096;-55
2021/06/06 01:36:20;;;;;;;24.27;17.63;;;;;;;15.39;72.36;100718.09;4995711;28;20042;-55
2021/06/06 01:39:21;;;;;;;21.33;17.42;;;;;;;15.35;72.50;100711.97;5013273;28;20030;-55
2021/06/06 01:41:56;;;;;;;21.10;16.15;;;;;;;15.36;72.54;100713.72;5002654;28;20501;-56
2021/06/06 01:44:26;;;;;;;21.27;17.05;;;;;;;15.36;72.56;100713.72;4979996;28;20042;-56
2021/06/06 01:47:04;;;;;;;23.42;18.40;;;;;;;15.36;72.56;100713.72;4995583;28;20038;-56
2021/06/06 01:49:32;;;;;;;22.33;18.08;;;;;;;15.36;72.90;100703.28;5012906;28;20030;-56
2021/06/06 01:52:01;;;;;;;23.70;18.50;;;;;;;15.35;72.46;100706.75;5013122;28;20058;-55
2021/06/06 01:54:31;;;;;;;20.73;17.27;;;;;;;15.36;72.46;100708.50;5013149;28;20042;-55
2021/06/06 01:56:58;;;;;;;24.05;17.38;;;;;;;15.36;72.16;100702.38;5013228;28;20037;-55
2021/06/06 01:59:33;;;;;;;23.95;19.15;;;;;;;15.35;72.45;100701.53;4979440;28;20034;-55
2021/06/06 02:02:01;;;;;;;26.85;18.30;;;;;;;15.34;72.39;100702.38;4976970;28;20418;-57
2021/06/06 02:04:27;;;;;;;23.48;18.65;;;;;;;15.34;72.37;100696.28;4995776;28;20046;-55
2021/06/06 02:07:06;;;;;;;28.08;20.52;;;;;;;15.31;72.50;100693.66;4996811;28;20048;-55
2021/06/06 02:09:37;;;;;;;25.67;19.52;;;;;;;15.33;72.30;100705.00;4979447;28;20095;-56
2021/06/06 02:12:07;;;;;;;35.33;22.42;;;;;;;15.33;72.49;100699.78;4995618;28;20053;-55
2021/06/06 02:14:41;;;;;;;29.77;22.55;;;;;;;15.31;72.33;100697.13;4995835;28;20049;-55
2021/06/06 02:17:09;;;;;;;;;;;;;;;15.28;72.32;100701.47;4980248;28;20049;-55
2021/06/06 02:19:37;;;;;;;32.30;23.80;;;;;;;15.30;72.42;100707.59;4996494;28;19918;-55
2021/06/06 02:22:07;;;;;;;35.30;23.10;;;;;;;15.29;72.48;100698.84;4979494;28;20034;-55
2021/06/06 02:24:35;;;;;;;32.78;23.55;;;;;;;15.28;72.82;100702.34;4996701;28;20041;-55
2021/06/06 02:27:12;;;;;;;33.88;24.10;;;;;;;15.29;72.48;100709.31;4996238;28;20042;-56
2021/06/06 02:29:50;;;;;;;37.08;26.27;;;;;;;15.28;72.27;100709.31;4996422;28;20047;-55
2021/06/06 02:32:25;;;;;;;40.30;27.10;;;;;;;15.27;72.56;100708.41;4995628;28;20045;-57
2021/06/06 02:35:10;;;;;;;37.97;26.83;;;;;;;15.27;72.52;100705.81;4995487;28;20042;-57
2021/06/06 02:37:46;;;;;;;33.65;26.00;;;;;;;15.27;72.59;100699.72;4996252;28;20034;-57
2021/06/06 02:40:28;;;;;;;40.83;27.85;;;;;;;15.25;72.53;100697.13;4995577;28;20046;-57
2021/06/06 02:42:58;;;;;;;42.75;29.40;;;;;;;15.25;72.55;100707.56;4996008;28;20509;-56
2021/06/06 02:45:28;;;;;;;45.13;29.35;;;;;;;15.26;72.44;100711.03;4994642;28;20041;-57
2021/06/06 02:48:03;;;;;;;41.50;30.48;;;;;;;15.26;72.43;100711.03;4994390;28;20027;-57
2021/06/06 02:50:34;;;;;;;47.17;30.70;;;;;;;15.26;72.53;100705.81;4996363;28;20038;-57
2021/06/06 02:53:16;;;;;;;41.22;29.67;;;;;;;15.25;72.38;100706.66;4996312;28;20038;-56
2021/06/06 02:55:46;;;;;;;43.08;30.27;;;;;;;15.26;72.37;100709.28;4996220;28;20050;-57
2021/06/06 02:58:21;;;;;;;39.70;28.98;;;;;;;15.23;72.31;100699.69;4996127;28;20112;-57
2021/06/06 03:00:52;;;;;;;42.38;28.25;;;;;;;15.25;72.40;100698.84;4996195;28;20093;-57
2021/06/06 03:03:36;;;;;;;47.03;29.67;;;;;;;15.23;72.12;100697.09;4994276;28;20050;-57
2021/06/06 03:06:09;;;;;;;38.30;28.33;;;;;;;15.23;72.39;100691.84;4995777;28;20128;-57
2021/06/06 03:08:35;;;;;;;43.67;29.90;;;;;;;15.25;72.45;100688.38;4995843;28;20286;-57
2021/06/06 03:11:06;;;;;;;42.70;29.98;;;;;;;15.22;72.52;100684.88;4978273;28;20053;-56
2021/06/06 03:13:36;;;;;;;43.22;30.27;;;;;;;15.23;72.45;100683.16;4995684;28;20034;-57
2021/06/06 03:16:03;;;;;;;46.83;29.90;;;;;;;15.23;72.45;100685.78;4995793;28;20061;-57
2021/06/06 03:18:38;;;;;;;44.78;31.58;;;;;;;15.23;72.36;100683.16;4995493;28;20038;-57
2021/06/06 03:21:22;;;;;;;47.17;30.58;;;;;;;15.23;71.93;100685.78;4995407;28;20041;-57
2021/06/06 03:24:00;;;;;;;42.88;28.65;;;;;;;15.20;72.37;100676.16;4995721;28;20057;-57
2021/06/06 03:26:32;;;;;;;43.00;30.75;;;;;;;15.20;72.74;100678.78;4995472;28;20042;-57
2021/06/06 03:29:04;;;;;;;46.65;32.90;;;;;;;15.19;72.52;100681.38;4994031;28;20501;-57
2021/06/06 03:31:39;;;;;;;44.30;30.98;;;;;;;15.18;72.36;100672.66;4995370;28;20038;-57
2021/06/06 03:34:09;;;;;;;46.40;31.40;;;;;;;15.19;72.43;100679.63;4993962;28;20042;-57
2021/06/06 03:36:37;;;;;;;45.80;31.63;;;;;;;15.19;72.56;100679.63;4977798;28;20443;-56
2021/06/06 03:39:14;;;;;;;43.08;30.42;;;;;;;15.19;72.57;100686.63;4993951;28;20034;-57
2021/06/06 03:41:40;;;;;;;46.20;32.30;;;;;;;15.19;72.23;100686.63;4994354;28;20072;-57
2021/06/06 03:44:06;;;;;;;49.22;32.45;;;;;;;15.17;72.41;100684.00;4993550;28;20062;-57
2021/06/06 03:46:38;;;;;;;41.33;30.83;;;;;;;15.16;72.56;100684.88;4993836;28;20038;-57
2021/06/06 03:49:06;;;;;;;48.33;32.47;;;;;;;15.15;72.58;100682.22;4994097;28;20046;-57
2021/06/06 03:51:33;;;;;;;48.33;32.83;;;;;;;15.14;72.37;100688.31;4994569;28;20461;-57
2021/06/06 03:54:02;;;;;;;47.83;32.38;;;;;;;15.14;72.46;100690.91;4994601;28;20056;-56
2021/06/06 03:56:30;;;;;;;51.15;33.80;;;;;;;15.14;72.48;100685.69;4994783;28;20050;-56
2021/06/06 03:58:58;;;;;;;53.17;34.17;;;;;;;15.13;72.35;100695.28;4993173;28;20110;-57
2021/06/06 04:01:23;;;;;;;49.15;33.78;;;;;;;15.12;72.55;100685.69;4996003;28;20548;-57
2021/06/06 04:03:55;;;;;;;47.83;34.15;;;;;;;15.12;72.44;100688.31;5014382;28;20037;-56
2021/06/06 04:06:23;;;;;;;50.47;33.53;;;;;;;15.12;72.51;100693.53;5014538;28;20041;-57
2021/06/06 04:08:50;;;;;;;54.78;35.10;;;;;;;15.11;72.44;100693.50;5014251;28;20109;-57
2021/06/06 04:11:17;;;;;;;49.83;33.88;;;;;;;15.10;72.45;100687.41;5014017;28;20042;-57
2021/06/06 04:13:42;;;;;;;49.72;34.40;;;;;;;15.09;72.49;100696.09;5014108;28;20042;-57
2021/06/06 04:16:10;;;;;;;52.72;35.35;;;;;;;15.09;72.56;100692.63;4996905;28;20053;-56
2021/06/06 04:18:39;;;;;;;48.67;32.58;;;;;;;15.07;72.38;100692.59;5014042;28;20135;-56
2021/06/06 04:21:10;;;;;;;52.83;33.30;;;;;;;15.06;72.47;100691.75;5014075;28;20489;-56
2021/06/06 04:23:39;;;;;;;48.78;33.90;;;;;;;15.07;72.48;100692.59;5014032;28;20033;-57
2021/06/06 04:26:08;;;;;;;50.28;35.25;;;;;;;15.05;72.57;100699.53;4995685;28;20045;-57
2021/06/06 04:28:34;;;;;;;50.00;33.50;;;;;;;15.05;72.45;100692.59;4996763;28;20057;-57
2021/06/06 04:31:08;;;;;;;49.72;35.25;;;;;;;15.04;72.39;100700.41;4996594;28;20069;-57
2021/06/06 04:33:37;;;;;;;49.72;34.72;;;;;;;15.05;72.54;100704.75;4996457;28;20033;-57
2021/06/06 04:36:06;;;;;;;52.05;33.92;;;;;;;15.05;72.72;100702.16;4995874;28;20124;-57
2021/06/06 04:38:32;;;;;;;46.40;32.05;;;;;;;15.04;72.61;100703.00;5013588;28;20037;-57
2021/06/06 04:41:00;;;;;;;53.42;34.28;;;;;;;15.03;72.80;100702.16;4996254;28;20034;-56
2021/06/06 04:43:29;;;;;;;46.63;31.45;;;;;;;15.04;72.43;100698.69;5013998;28;20116;-57
2021/06/06 04:45:55;;;;;;;45.08;33.28;;;;;;;15.03;72.61;100696.94;5013898;28;20064;-57
2021/06/06 04:48:26;;;;;;;50.22;33.58;;;;;;;15.04;72.55;100700.41;4980086;28;20551;-57
2021/06/06 04:50:53;;;;;;;47.38;32.17;;;;;;;15.04;72.68;100698.69;5013520;28;20038;-57
2021/06/06 04:53:19;;;;;;;52.20;33.50;;;;;;;15.03;72.58;100703.88;5013359;28;20037;-57
2021/06/06 04:55:47;;;;;;;46.33;32.72;;;;;;;15.00;72.55;100704.72;5013912;28;20038;-57
2021/06/06 04:58:20;;;;;;;47.47;32.75;;;;;;;15.00;72.51;100701.25;5013891;28;20068;-57
2021/06/06 05:00:49;;;;;;;48.42;33.45;;;;;;;14.99;72.66;100700.38;4980038;28;20137;-57
2021/06/06 05:03:15;;;;;;;46.90;31.08;;;;;;;14.99;72.49;100697.75;4992505;28;20141;-57
2021/06/06 05:05:47;;;;;;;51.92;34.38;;;;;;;14.98;72.73;100701.22;4992681;28;20482;-56
2021/06/06 05:08:15;;;;;;;50.28;32.72;;;;;;;14.98;72.70;100701.22;4992806;28;20045;-57
2021/06/06 05:10:43;;;;;;;51.85;34.20;;;;;;;14.97;72.80;100703.84;4992694;28;20031;-57
2021/06/06 05:13:10;;;;;;;50.97;34.63;;;;;;;14.97;72.74;100704.69;4993513;28;20108;-57
2021/06/06 05:15:39;;;;;;;49.22;32.95;;;;;;;14.97;72.69;100703.84;4993778;28;20034;-57
2021/06/06 05:18:08;;;;;;;48.25;34.03;;;;;;;14.97;72.74;100703.84;4992523;28;20031;-57
2021/06/06 05:20:40;;;;;;;48.97;31.90;;;;;;;14.95;72.55;100698.59;4993235;28;20030;-57
2021/06/06 05:23:09;;;;;;;57.08;34.67;;;;;;;14.96;72.65;100702.09;4992868;28;20034;-57
2021/06/06 05:25:37;;;;;;;50.85;33.80;;;;;;;14.97;72.77;100699.47;4993629;28;20035;-57
2021/06/06 05:28:12;;;;;;;47.50;33.72;;;;;;;14.95;72.82;100695.97;4993417;28;20424;-56
2021/06/06 05:30:39;;;;;;;50.40;33.88;;;;;;;14.96;72.75;100697.72;4976337;28;20034;-55
2021/06/06 05:33:08;;;;;;;52.35;34.97;;;;;;;14.97;72.80;100698.63;4993194;28;20038;-56
2021/06/06 05:35:35;;;;;;;53.03;35.17;;;;;;;14.99;72.64;100702.13;4993727;28;20034;-57
2021/06/06 05:38:03;;;;;;;55.55;34.88;;;;;;;14.97;72.61;100698.63;4996499;28;20069;-57
2021/06/06 05:40:36;;;;;;;49.55;32.45;;;;;;;14.97;72.84;100699.47;4996752;28;20438;-57
2021/06/06 05:43:04;;;;;;;52.97;34.95;;;;;;;14.96;72.65;100702.09;4996213;28;20070;-56
2021/06/06 05:45:33;;;;;;;52.22;34.45;;;;;;;14.96;72.85;100707.31;4996101;28;20057;-57
2021/06/06 05:47:59;;;;;;;51.40;33.92;;;;;;;14.97;72.77;100702.09;4996069;28;20038;-56
2021/06/06 05:50:29;;;;;;;46.10;30.75;;;;;;;14.98;72.67;100702.97;4997040;28;20093;-55
2021/06/06 05:53:00;;;;;;;49.47;33.10;;;;;;;14.96;72.71;100707.31;4995409;28;20133;-56
2021/06/06 05:55:32;;;;;;;48.30;33.60;;;;;;;14.97;73.07;100709.06;4996021;28;20027;-56
2021/06/06 05:57:57;;;;;;;48.42;32.55;;;;;;;14.95;72.85;100705.56;4997127;28;20034;-55
2021/06/06 06:00:31;;;;;;;46.13;33.67;;;;;;;14.94;72.74;100707.31;4979174;28;20092;-55
2021/06/06 06:03:03;;;;;;;50.63;33.05;;;;;;;14.94;72.94;100695.97;4996119;28;20108;-55
2021/06/06 06:05:30;;;;;;;52.97;32.72;;;;;;;14.94;73.05;100694.25;4996565;28;20042;-55
2021/06/06 06:07:57;;;;;;;46.13;31.02;;;;;;;14.93;73.08;100695.13;4995874;28;20070;-55
2021/06/06 06:10:29;;;;;;;50.03;32.58;;;;;;;14.94;72.61;100698.59;4995692;28;20038;-55
2021/06/06 06:12:56;;;;;;;47.03;31.23;;;;;;;14.94;72.91;100695.97;4995059;28;20034;-56
2021/06/06 06:15:25;;;;;;;48.00;31.48;;;;;;;14.94;72.82;100702.09;4995546;28;20034;-55
2021/06/06 06:17:53;;;;;;;51.13;32.00;;;;;;;14.95;72.78;100698.59;4996746;28;20401;-57
2021/06/06 06:20:21;;;;;;;44.15;30.85;;;;;;;14.95;72.91;100709.03;4996811;28;20042;-57
2021/06/06 06:22:49;;;;;;;51.10;32.30;;;;;;;14.95;72.97;100705.56;4996447;28;20034;-56
2021/06/06 06:25:17;;;;;;;47.42;31.42;;;;;;;14.96;72.87;100715.13;4995400;28;20049;-56
2021/06/06 06:27:45;;;;;;;49.65;32.05;;;;;;;14.95;72.97;100708.16;4996233;28;20035;-55
2021/06/06 06:30:25;;;;;;;48.65;32.90;;;;;;;14.94;72.84;100703.81;4978972;28;20506;-55
2021/06/06 06:32:50;;;;;;;50.10;33.97;;;;;;;14.96;72.99;100704.69;4996565;28;20485;-56
2021/06/06 06:35:16;;;;;;;48.40;32.25;;;;;;;14.95;73.13;100706.41;4994797;28;20045;-57
2021/06/06 06:37:41;;;;;;;44.72;32.00;;;;;;;14.96;73.06;100715.13;4996312;28;20440;-57
2021/06/06 06:40:12;;;;;;;50.72;32.92;;;;;;;14.97;72.96;100711.69;4994860;28;20133;-57
2021/06/06 06:42:41;;;;;;;49.22;32.03;;;;;;;14.96;73.11;100708.16;4978550;28;20042;-57
2021/06/06 06:45:13;;;;;;;51.22;34.35;;;;;;;14.94;73.00;100703.81;4995833;28;20039;-57
2021/06/06 06:47:39;;;;;;;49.28;33.05;;;;;;;14.94;73.38;100707.31;4994687;28;20034;-57
2021/06/06 06:50:09;;;;;;;45.92;32.38;;;;;;;14.95;73.07;100708.16;4995675;28;20046;-57
2021/06/06 06:52:40;;;;;;;46.78;31.17;;;;;;;14.95;73.00;100711.63;4996068;28;20048;-57
2021/06/06 06:55:17;;;;;;;53.00;32.15;;;;;;;14.95;72.96;100709.03;4996210;28;20125;-57
2021/06/06 06:57:43;;;;;;;44.45;29.90;;;;;;;14.96;73.07;100710.78;4994813;28;20033;-57
2021/06/06 07:00:22;;;;;;;47.38;31.60;;;;;;;14.95;72.90;100706.41;4994660;28;20038;-57
2021/06/06 07:02:48;;;;;;;45.22;29.92;;;;;;;14.97;72.96;100709.06;5008362;28;20054;-57
2021/06/06 07:05:14;;;;;;;46.72;29.45;;;;;;;14.97;73.18;100709.91;5015116;28;20036;-57
2021/06/06 07:07:40;;;;;;;44.13;30.58;;;;;;;14.99;73.09;100709.94;4997650;28;20029;-57
2021/06/06 07:10:09;;;;;;;39.45;28.98;;;;;;;14.99;73.08;100709.94;5015220;28;20096;-57
2021/06/06 07:12:35;;;;;;;44.38;30.45;;;;;;;14.98;73.09;100711.69;4997672;28;20140;-56
2021/06/06 07:15:00;;;;;;;41.22;29.25;;;;;;;14.99;72.99;100712.56;5015043;28;20561;-57
2021/06/06 07:17:30;;;;;;;44.38;29.70;;;;;;;14.99;72.97;100712.56;4981537;28;20030;-57
2021/06/06 07:19:58;;;;;;;39.17;26.85;;;;;;;14.98;73.11;100716.03;4997744;28;20096;-57
2021/06/06 07:22:29;;;;;;;37.92;28.48;;;;;;;14.97;73.03;100707.31;5014903;28;20048;-57
2021/06/06 07:24:59;;;;;;;37.13;26.73;;;;;;;14.98;73.15;100718.66;4997966;28;20042;-57
2021/06/06 07:27:25;;;;;;;38.53;26.88;;;;;;;14.97;73.06;100712.53;5014714;28;20073;-57
2021/06/06 07:29:53;;;;;;;40.83;28.25;;;;;;;14.97;72.99;100716.88;4997317;28;20072;-56
2021/06/06 07:32:22;;;;;;;36.38;25.73;;;;;;;14.96;73.00;100721.22;4997568;28;20033;-55
2021/06/06 07:34:48;;;;;;;36.88;25.52;;;;;;;14.95;73.05;100724.69;4997599;28;20489;-57
2021/06/06 07:37:19;;;;;;;33.75;25.77;;;;;;;14.96;72.78;100718.63;5014393;28;20034;-56
2021/06/06 07:39:47;;;;;;;34.35;25.10;;;;;;;14.96;72.97;100718.63;5014348;28;20449;-57
2021/06/06 07:42:13;;;;;;;36.65;24.05;;;;;;;14.97;73.24;100728.19;4997292;28;20034;-56
2021/06/06 07:44:43;;;;;;;35.72;25.23;;;;;;;14.97;73.14;100722.13;5014487;28;20042;-57
2021/06/06 07:47:15;;;;;;;32.22;24.65;;;;;;;14.98;72.98;100723.88;4997486;28;20060;-57
2021/06/06 07:49:44;;;;;;;38.13;25.40;;;;;;;14.98;73.00;100726.47;4997673;28;20034;-55
2021/06/06 07:52:13;;;;;;;30.08;21.77;;;;;;;14.97;73.14;100729.94;4980655;28;20064;-55
2021/06/06 07:54:45;;;;;;;33.22;24.20;;;;;;;14.98;72.83;100729.94;4980478;28;20414;-57
2021/06/06 07:57:15;;;;;;;34.70;24.35;;;;;;;14.99;73.24;100728.22;4980726;28;20041;-56
2021/06/06 07:59:43;;;;;;;30.55;22.98;;;;;;;15.00;73.08;100730.84;4980305;28;20099;-55
2021/06/06 08:02:13;;;;;;;29.90;22.52;;;;;;;15.01;72.93;100727.38;4993337;28;20125;-55
2021/06/06 08:04:44;;;;;;;29.65;20.77;;;;;;;15.03;72.98;100737.81;4977781;28;20404;-57
2021/06/06 08:07:17;;;;;;;34.20;21.55;;;;;;;15.02;73.03;100723.91;4993251;28;20045;-55
2021/06/06 08:09:45;;;;;;;31.95;22.75;;;;;;;15.01;72.91;100721.28;4994763;28;20038;-56
2021/06/06 08:12:14;;;;;;;29.80;20.48;;;;;;;15.01;73.01;100723.91;4993300;28;20042;-56
2021/06/06 08:14:43;;;;;;;28.23;19.92;;;;;;;15.02;73.17;100723.91;4993745;28;20049;-55
2021/06/06 08:17:11;;;;;;;33.78;21.80;;;;;;;15.02;73.08;100720.44;4994712;28;20050;-55
2021/06/06 08:19:36;;;;;;;32.70;21.23;;;;;;;15.02;73.05;100723.03;4993380;28;20045;-55
2021/06/06 08:22:04;;;;;;;30.70;20.52;;;;;;;15.02;72.95;100721.28;4994502;28;20030;-55
2021/06/06 08:24:32;;;;;;;26.77;18.77;;;;;;;15.02;72.89;100723.91;4994383;28;20516;-55
2021/06/06 08:26:57;;;;;;;24.48;19.25;;;;;;;15.03;73.12;100724.75;4994426;28;20074;-55
2021/06/06 08:29:23;;;;;;;28.60;20.95;;;;;;;15.03;73.11;100730.88;4993139;28;20552;-55
2021/06/06 08:31:50;;;;;;;26.65;19.70;;;;;;;15.03;72.99;100730.88;4977385;28;20034;-55
2021/06/06 08:34:21;;;;;;;30.70;19.58;;;;;;;15.03;73.03;100727.38;4992698;28;20034;-55
2021/06/06 08:36:51;;;;;;;30.67;20.90;;;;;;;15.04;72.97;100730.00;4993977;28;20065;-55
2021/06/06 08:39:21;;;;;;;27.67;19.55;;;;;;;15.04;72.97;100722.19;4994057;28;20493;-55
2021/06/06 08:41:56;;;;;;;28.13;19.17;;;;;;;15.04;72.97;100724.78;4993234;28;20478;-56
2021/06/06 08:44:31;;;;;;;26.73;18.70;;;;;;;15.04;73.05;100739.56;4992927;28;20545;-56
2021/06/06 08:46:59;;;;;;;26.85;18.67;;;;;;;15.06;73.36;100740.44;4994068;28;20433;-55
2021/06/06 08:49:27;;;;;;;26.90;18.98;;;;;;;15.05;72.97;100736.97;4993053;28;20465;-56
2021/06/06 08:52:09;;;;;;;24.17;18.52;;;;;;;15.05;73.03;100739.59;4994350;28;20164;-55
2021/06/06 08:54:51;;;;;;;25.42;17.83;;;;;;;15.06;72.93;100743.94;4993129;28;20030;-55
2021/06/06 08:57:22;;;;;;;25.27;18.25;;;;;;;15.07;72.94;100750.03;4993792;28;20038;-55
2021/06/06 08:59:57;;;;;;;24.30;18.45;;;;;;;15.06;72.96;100743.06;4993894;28;20045;-55
2021/06/06 09:02:47;;;;;;;26.73;17.00;;;;;;;15.06;72.95;100743.06;5003020;28;20391;-55
2021/06/06 09:05:25;;;;;;;27.35;18.25;;;;;;;15.06;73.02;100746.56;4996351;28;20049;-56
2021/06/06 09:07:55;;;;;;;27.05;17.75;;;;;;;15.07;72.91;100750.94;5013702;28;20045;-56
2021/06/06 09:10:26;;;;;;;25.50;18.50;;;;;;;15.08;72.98;100741.34;5014081;28;20109;-56
2021/06/06 09:12:51;;;;;;;25.67;17.50;;;;;;;15.08;72.98;100743.94;5017078;28;20133;-55
2021/06/06 09:15:21;;;;;;;25.27;20.42;;;;;;;15.09;73.06;100743.09;5000225;28;20074;-55
2021/06/06 09:17:53;;;;;;;27.65;18.67;;;;;;;15.09;72.88;100748.31;4999657;28;20516;-55
2021/06/06 09:20:39;;;;;;;23.52;18.70;;;;;;;15.08;72.95;100749.19;4983782;28;20445;-55
2021/06/06 09:23:24;;;;;;;25.45;18.00;;;;;;;15.10;72.97;100747.47;4999572;28;20037;-55
2021/06/06 09:26:07;;;;;;;24.17;18.08;;;;;;;15.12;72.75;100752.69;5017167;28;20065;-56
2021/06/06 09:28:36;;;;;;;25.50;17.83;;;;;;;15.11;72.88;100746.59;4999725;28;20416;-55
2021/06/06 09:31:25;;;;;;;24.02;17.80;;;;;;;15.11;72.87;100750.94;5016723;28;20046;-55
2021/06/06 09:33:53;;;;;;;30.30;18.60;;;;;;;15.12;72.85;100748.34;5017405;28;20044;-57
2021/06/06 09:36:21;;;;;;;25.65;18.00;;;;;;;15.12;72.97;100745.75;4999599;28;20477;-55
2021/06/06 09:38:50;;;;;;;24.05;17.58;;;;;;;15.13;72.89;100739.66;4999271;28;20061;-55
2021/06/06 09:41:20;;;;;;;26.58;17.77;;;;;;;15.15;72.97;100740.56;4999414;28;20069;-55
2021/06/06 09:44:14;;;;;;;26.08;17.58;;;;;;;15.16;72.92;100744.03;5016752;28;20121;-55
2021/06/06 09:46:42;;;;;;;25.95;16.85;;;;;;;15.17;72.77;100746.66;5016917;28;20121;-55
2021/06/06 09:49:34;;;;;;;22.65;16.60;;;;;;;15.18;72.84;100747.53;5016469;28;20030;-56
2021/06/06 09:52:17;;;;;;;27.42;16.48;;;;;;;15.18;72.82;100751.00;5016892;28;20069;-55
2021/06/06 09:54:52;;;;;;;27.90;17.50;;;;;;;15.19;72.61;100749.28;5016698;28;20121;-56
2021/06/06 09:57:21;;;;;;;24.40;17.58;;;;;;;15.20;72.87;100751.03;5017052;28;20050;-56
2021/06/06 09:59:49;;;;;;;24.25;16.40;;;;;;;15.22;72.88;100759.75;5016696;28;20038;-56
2021/06/06 10:02:29;;;;;;;21.25;15.85;;;;;;;15.22;72.97;100754.53;4998790;28;20103;-56
2021/06/06 10:05:11;;;;;;;23.52;16.67;;;;;;;15.22;72.98;100751.91;4999076;28;20121;-55
2021/06/06 10:07:40;;;;;;;22.88;15.68;;;;;;;15.22;72.69;100755.38;5016418;28;20034;-55
2021/06/06 10:10:18;;;;;;;24.33;17.33;;;;;;;15.23;72.83;100751.91;4998582;28;20129;-55
2021/06/06 10:12:48;;;;;;;21.88;16.15;;;;;;;15.25;72.65;100762.38;5016517;28;20481;-55
2021/06/06 10:15:13;;;;;;;25.15;17.42;;;;;;;15.26;72.83;100763.25;4998839;28;20092;-55
2021/06/06 10:17:54;;;;;;;22.17;16.67;;;;;;;15.23;73.00;100762.34;5016006;28;20437;-55
2021/06/06 10:20:29;;;;;;;23.58;16.63;;;;;;;15.25;72.85;100758.88;4983053;28;20454;-56
2021/06/06 10:23:07;;;;;;;22.48;16.33;;;;;;;15.26;72.89;100760.63;4998074;28;20037;-55
2021/06/06 10:25:57;;;;;;;21.27;15.75;;;;;;;15.25;72.70;100758.88;4982056;28;20056;-56
2021/06/06 10:28:31;;;;;;;21.77;16.67;;;;;;;15.28;73.04;100758.91;5016349;28;20038;-56
2021/06/06 10:31:05;;;;;;;21.50;16.48;;;;;;;15.28;72.87;100757.16;4982715;28;20061;-56
2021/06/06 10:33:35;;;;;;;;;;;;;;;15.26;72.97;100758.03;4998975;28;20034;-56
2021/06/06 10:36:07;;;;;;;24.55;15.95;;;;;;;15.27;72.85;100759.78;4982358;28;19913;-55
2021/06/06 10:38:37;;;;;;;22.48;16.55;;;;;;;15.27;72.88;100758.03;4982820;28;20041;-55
2021/06/06 10:41:46;;;;;;;25.20;17.65;;;;;;;15.27;72.80;100760.63;4998804;28;20045;-56
2021/06/06 10:44:20;;;;;;;25.67;17.52;;;;;;;15.28;72.87;100754.56;4968248;28;20477;-57
2021/06/06 10:46:54;;;;;;;21.10;16.45;;;;;;;15.31;72.79;100756.34;4997982;28;20068;-57
2021/06/06 10:49:35;;;;;;;22.10;15.93;;;;;;;15.31;72.79;100754.59;5016128;28;20084;-56
2021/06/06 10:52:06;;;;;;;18.58;14.95;;;;;;;15.34;73.03;100748.50;4998223;28;20033;-55
2021/06/06 10:54:42;;;;;;;22.90;16.17;;;;;;;15.36;72.76;100759.84;5015494;28;20036;-56
2021/06/06 10:57:30;;;;;;;22.50;16.40;;;;;;;15.35;72.63;100755.47;4997874;28;20042;-56
2021/06/06 11:00:02;;;;;;;21.38;14.93;;;;;;;15.36;72.83;100750.28;5015791;28;20038;-56
2021/06/06 11:02:37;;;;;;;21.83;16.15;;;;;;;15.37;72.68;100758.97;4981412;28;20416;-56
2021/06/06 11:05:07;;;;;;;21.75;15.57;;;;;;;15.38;72.80;100753.78;5015554;28;20034;-56
2021/06/06 11:07:41;;;;;;;22.58;15.45;;;;;;;15.38;72.82;100759.00;4997934;28;20034;-56
2021/06/06 11:10:13;;;;;;;;;;;;;;;15.37;72.74;100757.25;4998013;28;20080;-55
2021/06/06 11:12:43;;;;;;;21.92;15.73;;;;;;;15.39;72.72;100757.25;4998090;28;19921;-55
2021/06/06 11:15:31;;;;;;;21.02;16.08;;;;;;;15.40;72.74;100755.53;5015415;28;20041;-56
2021/06/06 11:18:11;;;;;;;21.45;16.25;;;;;;;15.41;72.61;100746.84;4997533;28;20100;-56
2021/06/06 11:20:48;;;;;;;18.85;14.68;;;;;;;15.40;72.81;100748.56;5015905;28;20030;-55
2021/06/06 11:23:23;;;;;;;19.60;14.95;;;;;;;15.41;72.67;100739.00;4997757;28;20038;-55
2021/06/06 11:25:49;;;;;;;21.52;15.65;;;;;;;15.41;72.82;100742.47;4997317;28;20556;-56
2021/06/06 11:28:35;;;;;;;18.02;14.32;;;;;;;15.41;72.74;100732.03;4997333;28;20104;-55